sensor_id;sensor_type;location;lat;lon;timestamp;temperature;humidity
20862;DHT22;10591;52.532;13.348;2023-02-05T00:00:24;-0.80;70.23
20862;DHT22;10591;52.532;13.348;2023-02-05T00:02:54;-0.71;69.92
20862;DHT22;10591;52.532;13.348;2023-02-05T00:05:25;-0.80;70.25
20862;DHT22;10591;52.532;13.348;2023-02-05T00:07:59;-0.84;70.73
20862;DHT22;10591;52.532;13.348;2023-02-05T00:10:30;-0.86;71.12
20862;DHT22;10591;52.532;13.348;2023-02-05T00:13:01;-0.85;70.82
20862;DHT22;10591;52.532;13.348;2023-02-05T00:15:31;-0.88;70.62
20862;DHT22;10591;52.532;13.348;2023-02-05T00:18:05;-0.94;70.73
20862;DHT22;10591;52.532;13.348;2023-02-05T00:20:37;-0.79;70.73
20862;DHT22;10591;52.532;13.348;2023-02-05T00:23:08;-1.00;71.04
20862;DHT22;10591;52.532;13.348;2023-02-05T00:25:39;-0.98;70.80
20862;DHT22;10591;52.532;13.348;2023-02-05T00:28:11;-0.90;70.44
20862;DHT22;10591;52.532;13.348;2023-02-05T00:30:41;-0.86;70.52
20862;DHT22;10591;52.532;13.348;2023-02-05T00:33:12;-0.89;70.36
20862;DHT22;10591;52.532;13.348;2023-02-05T00:35:43;-0.96;70.63
20862;DHT22;10591;52.532;13.348;2023-02-05T00:38:16;-0.96;70.95
20862;DHT22;10591;52.532;13.348;2023-02-05T00:40:48;-0.98;71.25
20862;DHT22;10591;52.532;13.348;2023-02-05T00:43:19;-1.03;71.42
20862;DHT22;10591;52.532;13.348;2023-02-05T00:45:49;-1.02;72.14
20862;DHT22;10591;52.532;13.348;2023-02-05T00:48:22;-0.98;71.70
20862;DHT22;10591;52.532;13.348;2023-02-05T00:50:53;-1.10;72.18
20862;DHT22;10591;52.532;13.348;2023-02-05T00:53:24;-1.00;73.04
20862;DHT22;10591;52.532;13.348;2023-02-05T00:55:57;-1.15;72.76
20862;DHT22;10591;52.532;13.348;2023-02-05T00:58:29;-1.34;73.22
20862;DHT22;10591;52.532;13.348;2023-02-05T01:01:01;-1.42;73.74
20862;DHT22;10591;52.532;13.348;2023-02-05T01:03:32;-1.30;74.06
20862;DHT22;10591;52.532;13.348;2023-02-05T01:06:04;-1.21;73.69
20862;DHT22;10591;52.532;13.348;2023-02-05T01:08:35;-1.06;72.88
20862;DHT22;10591;52.532;13.348;2023-02-05T01:11:07;-1.13;72.86
20862;DHT22;10591;52.532;13.348;2023-02-05T01:13:39;-1.19;73.52
20862;DHT22;10591;52.532;13.348;2023-02-05T01:16:10;-1.44;74.37
20862;DHT22;10591;52.532;13.348;2023-02-05T01:18:42;-1.54;74.55
20862;DHT22;10591;52.532;13.348;2023-02-05T01:21:13;-1.62;75.08
20862;DHT22;10591;52.532;13.348;2023-02-05T01:23:46;-1.66;75.24
20862;DHT22;10591;52.532;13.348;2023-02-05T01:26:17;-1.76;75.73
20862;DHT22;10591;52.532;13.348;2023-02-05T01:28:49;-1.78;76.28
20862;DHT22;10591;52.532;13.348;2023-02-05T01:31:19;-1.74;75.90
20862;DHT22;10591;52.532;13.348;2023-02-05T01:33:51;-1.80;75.84
20862;DHT22;10591;52.532;13.348;2023-02-05T01:36:22;-1.86;76.00
20862;DHT22;10591;52.532;13.348;2023-02-05T01:38:54;-1.96;76.57
20862;DHT22;10591;52.532;13.348;2023-02-05T01:41:27;-1.66;76.42
20862;DHT22;10591;52.532;13.348;2023-02-05T01:44:11;-1.80;76.63
20862;DHT22;10591;52.532;13.348;2023-02-05T01:46:45;-1.88;77.11
20862;DHT22;10591;52.532;13.348;2023-02-05T01:49:35;-2.00;77.63
20862;DHT22;10591;52.532;13.348;2023-02-05T01:52:03;-1.93;77.83
20862;DHT22;10591;52.532;13.348;2023-02-05T01:54:37;-2.06;78.27
20862;DHT22;10591;52.532;13.348;2023-02-05T01:57:17;-2.04;78.39
20862;DHT22;10591;52.532;13.348;2023-02-05T01:59:51;-2.02;78.74
20862;DHT22;10591;52.532;13.348;2023-02-05T02:02:23;-1.98;78.87
20862;DHT22;10591;52.532;13.348;2023-02-05T02:04:58;-1.98;79.05
20862;DHT22;10591;52.532;13.348;2023-02-05T02:07:29;-2.14;79.55
20862;DHT22;10591;52.532;13.348;2023-02-05T02:10:00;-2.28;80.23
20862;DHT22;10591;52.532;13.348;2023-02-05T02:12:32;-2.38;80.80
20862;DHT22;10591;52.532;13.348;2023-02-05T02:15:15;-2.10;80.41
20862;DHT22;10591;52.532;13.348;2023-02-05T02:17:42;-2.10;79.74
20862;DHT22;10591;52.532;13.348;2023-02-05T02:20:21;-2.01;79.37
20862;DHT22;10591;52.532;13.348;2023-02-05T02:23:17;-2.03;79.18
20862;DHT22;10591;52.532;13.348;2023-02-05T02:28:22;-2.16;79.43
20862;DHT22;10591;52.532;13.348;2023-02-05T02:33:46;-2.32;79.57
20862;DHT22;10591;52.532;13.348;2023-02-05T02:39:35;-2.34;79.94
20862;DHT22;10591;52.532;13.348;2023-02-05T02:42:16;-2.37;80.14
20862;DHT22;10591;52.532;13.348;2023-02-05T02:44:52;-2.24;80.01
20862;DHT22;10591;52.532;13.348;2023-02-05T02:47:30;-2.38;80.23
20862;DHT22;10591;52.532;13.348;2023-02-05T02:50:00;-2.48;80.36
20862;DHT22;10591;52.532;13.348;2023-02-05T02:52:34;-2.32;79.92
20862;DHT22;10591;52.532;13.348;2023-02-05T02:55:08;-2.28;79.77
20862;DHT22;10591;52.532;13.348;2023-02-05T02:57:40;-2.26;80.14
20862;DHT22;10591;52.532;13.348;2023-02-05T03:00:15;-2.53;80.24
20862;DHT22;10591;52.532;13.348;2023-02-05T03:02:47;-2.36;79.84
20862;DHT22;10591;52.532;13.348;2023-02-05T03:05:21;-2.44;80.19
20862;DHT22;10591;52.532;13.348;2023-02-05T03:07:58;-2.38;79.96
20862;DHT22;10591;52.532;13.348;2023-02-05T03:13:22;-2.26;78.97
20862;DHT22;10591;52.532;13.348;2023-02-05T03:15:53;-2.36;79.20
20862;DHT22;10591;52.532;13.348;2023-02-05T03:18:24;-2.51;79.74
20862;DHT22;10591;52.532;13.348;2023-02-05T03:23:42;-2.40;79.97
20862;DHT22;10591;52.532;13.348;2023-02-05T03:26:28;-2.14;79.41
20862;DHT22;10591;52.532;13.348;2023-02-05T03:29:01;-2.24;79.27
20862;DHT22;10591;52.532;13.348;2023-02-05T03:37:30;-2.22;78.26
20862;DHT22;10591;52.532;13.348;2023-02-05T03:40:15;-2.34;78.74
20862;DHT22;10591;52.532;13.348;2023-02-05T03:42:57;-2.40;79.19
20862;DHT22;10591;52.532;13.348;2023-02-05T03:53:48;-2.26;78.80
20862;DHT22;10591;52.532;13.348;2023-02-05T03:59:10;-1.96;78.17
20862;DHT22;10591;52.532;13.348;2023-02-05T04:01:43;-1.90;77.76
20862;DHT22;10591;52.532;13.348;2023-02-05T04:04:15;-1.76;77.65
20862;DHT22;10591;52.532;13.348;2023-02-05T04:06:50;-1.82;77.31
20862;DHT22;10591;52.532;13.348;2023-02-05T04:09:22;-1.72;76.93
20862;DHT22;10591;52.532;13.348;2023-02-05T04:11:53;-1.85;77.02
20862;DHT22;10591;52.532;13.348;2023-02-05T04:14:24;-1.69;76.94
20862;DHT22;10591;52.532;13.348;2023-02-05T04:16:54;-1.65;76.64
20862;DHT22;10591;52.532;13.348;2023-02-05T04:19:25;-1.73;77.57
20862;DHT22;10591;52.532;13.348;2023-02-05T04:21:55;-1.89;77.34
20862;DHT22;10591;52.532;13.348;2023-02-05T04:24:27;-1.98;77.98
20862;DHT22;10591;52.532;13.348;2023-02-05T04:26:59;-1.84;77.80
20862;DHT22;10591;52.532;13.348;2023-02-05T04:29:31;-1.74;77.59
20862;DHT22;10591;52.532;13.348;2023-02-05T04:32:01;-1.76;77.23
20862;DHT22;10591;52.532;13.348;2023-02-05T04:34:32;-1.98;77.28
20862;DHT22;10591;52.532;13.348;2023-02-05T04:37:03;-2.12;77.65
20862;DHT22;10591;52.532;13.348;2023-02-05T04:39:33;-2.11;78.00
20862;DHT22;10591;52.532;13.348;2023-02-05T04:42:04;-2.02;78.49
20862;DHT22;10591;52.532;13.348;2023-02-05T04:44:36;-2.06;77.96
20862;DHT22;10591;52.532;13.348;2023-02-05T04:47:06;-1.92;77.88
20862;DHT22;10591;52.532;13.348;2023-02-05T04:49:37;-1.75;76.78
20862;DHT22;10591;52.532;13.348;2023-02-05T04:52:09;-2.00;77.18
20862;DHT22;10591;52.532;13.348;2023-02-05T04:54:40;-1.74;76.97
20862;DHT22;10591;52.532;13.348;2023-02-05T04:57:10;-1.64;76.28
20862;DHT22;10591;52.532;13.348;2023-02-05T04:59:42;-1.58;76.12
20862;DHT22;10591;52.532;13.348;2023-02-05T05:02:12;-1.50;75.54
20862;DHT22;10591;52.532;13.348;2023-02-05T05:04:43;-1.32;75.08
20862;DHT22;10591;52.532;13.348;2023-02-05T05:07:14;-1.62;74.97
20862;DHT22;10591;52.532;13.348;2023-02-05T05:09:44;-1.52;75.16
20862;DHT22;10591;52.532;13.348;2023-02-05T05:12:15;-1.46;75.14
20862;DHT22;10591;52.532;13.348;2023-02-05T05:14:45;-1.65;75.34
20862;DHT22;10591;52.532;13.348;2023-02-05T05:17:20;-1.64;75.42
20862;DHT22;10591;52.532;13.348;2023-02-05T05:19:50;-1.76;75.49
20862;DHT22;10591;52.532;13.348;2023-02-05T05:22:21;-1.82;75.69
20862;DHT22;10591;52.532;13.348;2023-02-05T05:24:52;-1.73;75.91
20862;DHT22;10591;52.532;13.348;2023-02-05T05:27:24;-1.74;76.31
20862;DHT22;10591;52.532;13.348;2023-02-05T05:29:54;-1.78;76.39
20862;DHT22;10591;52.532;13.348;2023-02-05T05:32:25;-1.86;76.33
20862;DHT22;10591;52.532;13.348;2023-02-05T05:34:55;-1.94;76.19
20862;DHT22;10591;52.532;13.348;2023-02-05T05:37:26;-1.82;77.12
20862;DHT22;10591;52.532;13.348;2023-02-05T05:39:57;-1.82;76.46
20862;DHT22;10591;52.532;13.348;2023-02-05T05:42:45;-1.78;76.44
20862;DHT22;10591;52.532;13.348;2023-02-05T05:45:33;-1.70;76.51
20862;DHT22;10591;52.532;13.348;2023-02-05T05:48:05;-1.58;76.39
20862;DHT22;10591;52.532;13.348;2023-02-05T05:50:37;-1.63;76.48
20862;DHT22;10591;52.532;13.348;2023-02-05T05:53:07;-1.65;76.37
20862;DHT22;10591;52.532;13.348;2023-02-05T05:55:38;-1.76;76.17
20862;DHT22;10591;52.532;13.348;2023-02-05T05:58:09;-1.66;75.80
20862;DHT22;10591;52.532;13.348;2023-02-05T06:00:41;-1.80;75.94
20862;DHT22;10591;52.532;13.348;2023-02-05T06:03:12;-1.72;76.05
20862;DHT22;10591;52.532;13.348;2023-02-05T06:05:43;-1.78;76.23
20862;DHT22;10591;52.532;13.348;2023-02-05T06:08:15;-1.81;76.36
20862;DHT22;10591;52.532;13.348;2023-02-05T06:10:46;-1.85;76.52
20862;DHT22;10591;52.532;13.348;2023-02-05T06:13:18;-1.90;76.37
20862;DHT22;10591;52.532;13.348;2023-02-05T06:15:49;-1.78;76.40
20862;DHT22;10591;52.532;13.348;2023-02-05T06:18:21;-1.86;75.97
20862;DHT22;10591;52.532;13.348;2023-02-05T06:20:52;-1.76;76.00
20862;DHT22;10591;52.532;13.348;2023-02-05T06:23:23;-1.84;75.90
20862;DHT22;10591;52.532;13.348;2023-02-05T06:25:54;-1.90;76.01
20862;DHT22;10591;52.532;13.348;2023-02-05T06:28:27;-1.94;76.25
20862;DHT22;10591;52.532;13.348;2023-02-05T06:30:57;-2.00;76.35
20862;DHT22;10591;52.532;13.348;2023-02-05T06:33:28;-1.86;76.00
20862;DHT22;10591;52.532;13.348;2023-02-05T06:35:58;-1.76;75.75
20862;DHT22;10591;52.532;13.348;2023-02-05T06:38:29;-1.72;75.69
20862;DHT22;10591;52.532;13.348;2023-02-05T06:40:59;-1.58;75.43
20862;DHT22;10591;52.532;13.348;2023-02-05T06:43:31;-1.44;75.44
20862;DHT22;10591;52.532;13.348;2023-02-05T06:46:02;-1.56;75.24
20862;DHT22;10591;52.532;13.348;2023-02-05T06:48:35;-1.62;75.30
20862;DHT22;10591;52.532;13.348;2023-02-05T06:51:06;-1.40;75.40
20862;DHT22;10591;52.532;13.348;2023-02-05T06:53:36;-1.42;75.85
20862;DHT22;10591;52.532;13.348;2023-02-05T06:56:08;-1.40;75.97
20862;DHT22;10591;52.532;13.348;2023-02-05T06:58:42;-1.13;74.43
20862;DHT22;10591;52.532;13.348;2023-02-05T07:01:12;-1.04;73.28
20862;DHT22;10591;52.532;13.348;2023-02-05T07:03:43;-1.22;74.20
20862;DHT22;10591;52.532;13.348;2023-02-05T07:06:14;-0.93;74.80
20862;DHT22;10591;52.532;13.348;2023-02-05T07:08:44;-1.03;74.60
20862;DHT22;10591;52.532;13.348;2023-02-05T07:11:17;-0.82;74.04
20862;DHT22;10591;52.532;13.348;2023-02-05T07:13:47;-0.93;73.77
20862;DHT22;10591;52.532;13.348;2023-02-05T07:16:20;-0.98;73.46
20862;DHT22;10591;52.532;13.348;2023-02-05T07:18:51;-0.92;73.30
20862;DHT22;10591;52.532;13.348;2023-02-05T07:21:22;-1.00;73.43
20862;DHT22;10591;52.532;13.348;2023-02-05T07:23:53;-1.00;73.28
20862;DHT22;10591;52.532;13.348;2023-02-05T07:26:23;-1.21;73.65
20862;DHT22;10591;52.532;13.348;2023-02-05T07:28:56;-1.08;73.62
20862;DHT22;10591;52.532;13.348;2023-02-05T07:31:30;-1.24;73.90
20862;DHT22;10591;52.532;13.348;2023-02-05T07:34:02;-1.18;73.77
20862;DHT22;10591;52.532;13.348;2023-02-05T07:36:33;-1.35;73.52
20862;DHT22;10591;52.532;13.348;2023-02-05T07:39:03;-1.40;73.48
20862;DHT22;10591;52.532;13.348;2023-02-05T07:41:34;-1.44;73.52
20862;DHT22;10591;52.532;13.348;2023-02-05T07:44:04;-1.40;73.62
20862;DHT22;10591;52.532;13.348;2023-02-05T07:46:35;-1.48;73.65
20862;DHT22;10591;52.532;13.348;2023-02-05T07:49:06;-1.49;74.00
20862;DHT22;10591;52.532;13.348;2023-02-05T07:51:36;-1.58;73.47
20862;DHT22;10591;52.532;13.348;2023-02-05T07:54:08;-1.58;73.15
20862;DHT22;10591;52.532;13.348;2023-02-05T07:56:39;-1.42;72.77
20862;DHT22;10591;52.532;13.348;2023-02-05T07:59:12;-1.30;72.58
20862;DHT22;10591;52.532;13.348;2023-02-05T08:01:43;-1.17;72.46
20862;DHT22;10591;52.532;13.348;2023-02-05T08:04:19;-1.17;72.19
20862;DHT22;10591;52.532;13.348;2023-02-05T08:06:47;-1.02;72.09
20862;DHT22;10591;52.532;13.348;2023-02-05T08:09:18;-0.90;71.82
20862;DHT22;10591;52.532;13.348;2023-02-05T08:11:51;-0.74;71.22
20862;DHT22;10591;52.532;13.348;2023-02-05T08:14:21;-0.86;70.67
20862;DHT22;10591;52.532;13.348;2023-02-05T08:16:53;-0.90;70.81
20862;DHT22;10591;52.532;13.348;2023-02-05T08:19:24;-0.82;70.43
20862;DHT22;10591;52.532;13.348;2023-02-05T08:21:55;-0.90;70.36
20862;DHT22;10591;52.532;13.348;2023-02-05T08:24:26;-0.60;70.24
20862;DHT22;10591;52.532;13.348;2023-02-05T08:26:58;-0.53;70.05
20862;DHT22;10591;52.532;13.348;2023-02-05T08:29:28;-0.33;69.99
20862;DHT22;10591;52.532;13.348;2023-02-05T08:31:59;-0.24;69.53
20862;DHT22;10591;52.532;13.348;2023-02-05T08:34:30;-0.20;69.19
20862;DHT22;10591;52.532;13.348;2023-02-05T08:37:00;-0.26;69.57
20862;DHT22;10591;52.532;13.348;2023-02-05T08:39:31;-0.28;68.89
20862;DHT22;10591;52.532;13.348;2023-02-05T08:42:02;-0.23;69.24
20862;DHT22;10591;52.532;13.348;2023-02-05T08:44:33;-0.08;68.13
20862;DHT22;10591;52.532;13.348;2023-02-05T08:47:04;-0.26;68.52
20862;DHT22;10591;52.532;13.348;2023-02-05T08:49:34;-0.44;68.79
20862;DHT22;10591;52.532;13.348;2023-02-05T08:52:06;-0.46;68.97
20862;DHT22;10591;52.532;13.348;2023-02-05T08:54:37;-0.38;68.88
20862;DHT22;10591;52.532;13.348;2023-02-05T08:57:09;-0.48;68.76
20862;DHT22;10591;52.532;13.348;2023-02-05T08:59:40;-0.27;68.23
20862;DHT22;10591;52.532;13.348;2023-02-05T09:02:14;-0.19;68.82
20862;DHT22;10591;52.532;13.348;2023-02-05T09:04:46;0.02;68.31
20862;DHT22;10591;52.532;13.348;2023-02-05T09:07:18;0.32;67.14
20862;DHT22;10591;52.532;13.348;2023-02-05T09:09:50;0.32;65.73
20862;DHT22;10591;52.532;13.348;2023-02-05T09:12:22;0.20;66.60
20862;DHT22;10591;52.532;13.348;2023-02-05T09:14:52;0.08;67.03
20862;DHT22;10591;52.532;13.348;2023-02-05T09:17:23;0.18;66.94
20862;DHT22;10591;52.532;13.348;2023-02-05T09:19:53;0.26;67.16
20862;DHT22;10591;52.532;13.348;2023-02-05T09:22:24;0.36;66.94
20862;DHT22;10591;52.532;13.348;2023-02-05T09:24:54;0.40;66.46
20862;DHT22;10591;52.532;13.348;2023-02-05T09:27:25;-0.03;66.48
20862;DHT22;10591;52.532;13.348;2023-02-05T09:29:55;-0.06;66.86
20862;DHT22;10591;52.532;13.348;2023-02-05T09:32:26;-0.14;67.22
20862;DHT22;10591;52.532;13.348;2023-02-05T09:34:56;-0.12;67.06
20862;DHT22;10591;52.532;13.348;2023-02-05T09:37:27;0.02;66.98
20862;DHT22;10591;52.532;13.348;2023-02-05T09:39:59;0.24;66.55
20862;DHT22;10591;52.532;13.348;2023-02-05T09:42:40;0.20;66.18
20862;DHT22;10591;52.532;13.348;2023-02-05T09:45:37;0.30;66.09
20862;DHT22;10591;52.532;13.348;2023-02-05T09:50:57;0.46;65.54
20862;DHT22;10591;52.532;13.348;2023-02-05T09:53:32;0.48;65.49
20862;DHT22;10591;52.532;13.348;2023-02-05T09:56:02;0.54;65.52
20862;DHT22;10591;52.532;13.348;2023-02-05T09:58:43;0.41;65.31
20862;DHT22;10591;52.532;13.348;2023-02-05T10:01:39;0.36;65.65
20862;DHT22;10591;52.532;13.348;2023-02-05T10:04:08;0.37;65.81
20862;DHT22;10591;52.532;13.348;2023-02-05T10:21:18;0.31;65.94
20862;DHT22;10591;52.532;13.348;2023-02-05T10:26:48;0.23;65.99
20862;DHT22;10591;52.532;13.348;2023-02-05T10:32:23;0.51;65.55
20862;DHT22;10591;52.532;13.348;2023-02-05T10:34:58;0.78;65.22
20862;DHT22;10591;52.532;13.348;2023-02-05T10:37:48;1.11;64.70
20862;DHT22;10591;52.532;13.348;2023-02-05T10:40:32;1.27;63.73
20862;DHT22;10591;52.532;13.348;2023-02-05T10:45:57;0.78;64.59
20862;DHT22;10591;52.532;13.348;2023-02-05T10:48:49;0.88;65.00
20862;DHT22;10591;52.532;13.348;2023-02-05T10:51:34;0.91;65.13
20862;DHT22;10591;52.532;13.348;2023-02-05T10:54:19;0.73;65.71
20862;DHT22;10591;52.532;13.348;2023-02-05T10:56:42;0.98;65.79
20862;DHT22;10591;52.532;13.348;2023-02-05T10:59:25;0.92;65.96
20862;DHT22;10591;52.532;13.348;2023-02-05T11:01:55;0.88;66.41
20862;DHT22;10591;52.532;13.348;2023-02-05T11:04:41;0.84;66.55
20862;DHT22;10591;52.532;13.348;2023-02-05T11:07:18;0.98;66.53
20862;DHT22;10591;52.532;13.348;2023-02-05T11:09:47;1.02;66.35
20862;DHT22;10591;52.532;13.348;2023-02-05T11:12:41;0.77;66.29
20862;DHT22;10591;52.532;13.348;2023-02-05T11:14:58;0.86;66.43
20862;DHT22;10591;52.532;13.348;2023-02-05T11:17:35;0.82;66.16
20862;DHT22;10591;52.532;13.348;2023-02-05T11:22:47;0.78;66.26
20862;DHT22;10591;52.532;13.348;2023-02-05T11:25:22;0.86;66.17
20862;DHT22;10591;52.532;13.348;2023-02-05T11:28:00;0.83;66.24
20862;DHT22;10591;52.532;13.348;2023-02-05T11:30:34;0.85;66.51
20862;DHT22;10591;52.532;13.348;2023-02-05T11:33:25;1.26;65.68
20862;DHT22;10591;52.532;13.348;2023-02-05T11:36:05;1.33;65.72
20862;DHT22;10591;52.532;13.348;2023-02-05T11:38:45;0.98;66.27
20862;DHT22;10591;52.532;13.348;2023-02-05T11:41:32;1.28;65.74
20862;DHT22;10591;52.532;13.348;2023-02-05T11:44:04;1.32;65.14
20862;DHT22;10591;52.532;13.348;2023-02-05T11:46:42;1.36;65.30
20862;DHT22;10591;52.532;13.348;2023-02-05T11:49:20;1.26;65.44
20862;DHT22;10591;52.532;13.348;2023-02-05T11:51:53;1.54;65.28
20862;DHT22;10591;52.532;13.348;2023-02-05T11:54:32;1.68;64.61
20862;DHT22;10591;52.532;13.348;2023-02-05T12:02:42;1.62;64.11
20862;DHT22;10591;52.532;13.348;2023-02-05T12:19:21;1.76;63.52
20862;DHT22;10591;52.532;13.348;2023-02-05T12:22:02;1.38;64.37
20862;DHT22;10591;52.532;13.348;2023-02-05T12:24:57;1.50;64.45
20862;DHT22;10591;52.532;13.348;2023-02-05T12:27:32;1.61;64.28
20862;DHT22;10591;52.532;13.348;2023-02-05T12:30:14;1.59;63.87
20862;DHT22;10591;52.532;13.348;2023-02-05T12:33:10;1.48;63.22
20862;DHT22;10591;52.532;13.348;2023-02-05T12:39:15;1.84;63.26
20862;DHT22;10591;52.532;13.348;2023-02-05T12:41:47;1.86;63.40
20862;DHT22;10591;52.532;13.348;2023-02-05T12:58:19;2.37;60.30
20862;DHT22;10591;52.532;13.348;2023-02-05T13:00:53;2.33;60.74
20862;DHT22;10591;52.532;13.348;2023-02-05T13:03:38;2.46;60.89
20862;DHT22;10591;52.532;13.348;2023-02-05T13:06:19;2.54;59.79
20862;DHT22;10591;52.532;13.348;2023-02-05T13:08:52;2.58;60.22
20862;DHT22;10591;52.532;13.348;2023-02-05T13:11:46;2.19;60.99
20862;DHT22;10591;52.532;13.348;2023-02-05T13:14:28;2.20;61.54
20862;DHT22;10591;52.532;13.348;2023-02-05T13:17:14;2.26;61.55
20862;DHT22;10591;52.532;13.348;2023-02-05T13:19:53;2.26;61.83
20862;DHT22;10591;52.532;13.348;2023-02-05T13:22:51;2.43;62.02
20862;DHT22;10591;52.532;13.348;2023-02-05T13:25:47;2.15;61.67
20862;DHT22;10591;52.532;13.348;2023-02-05T13:28:38;1.92;62.92
20862;DHT22;10591;52.532;13.348;2023-02-05T13:31:34;1.76;63.17
20862;DHT22;10591;52.532;13.348;2023-02-05T13:34:08;1.76;62.70
20862;DHT22;10591;52.532;13.348;2023-02-05T13:59:38;2.36;62.23
20862;DHT22;10591;52.532;13.348;2023-02-05T14:02:27;2.38;61.10
20862;DHT22;10591;52.532;13.348;2023-02-05T14:04:52;2.48;61.09
20862;DHT22;10591;52.532;13.348;2023-02-05T14:07:30;2.20;61.43
20862;DHT22;10591;52.532;13.348;2023-02-05T14:10:02;1.98;61.95
20862;DHT22;10591;52.532;13.348;2023-02-05T14:12:36;1.98;62.13
20862;DHT22;10591;52.532;13.348;2023-02-05T14:17:53;1.62;61.86
20862;DHT22;10591;52.532;13.348;2023-02-05T14:20:31;1.62;62.01
20862;DHT22;10591;52.532;13.348;2023-02-05T14:23:11;1.66;62.57
20862;DHT22;10591;52.532;13.348;2023-02-05T14:26:10;1.70;62.47
20862;DHT22;10591;52.532;13.348;2023-02-05T14:31:04;1.39;62.94
20862;DHT22;10591;52.532;13.348;2023-02-05T14:33:42;1.32;63.44
20862;DHT22;10591;52.532;13.348;2023-02-05T14:38:53;1.38;63.40
20862;DHT22;10591;52.532;13.348;2023-02-05T14:44:29;1.30;62.97
20862;DHT22;10591;52.532;13.348;2023-02-05T14:47:20;1.14;63.25
20862;DHT22;10591;52.532;13.348;2023-02-05T14:50:05;1.12;63.41
20862;DHT22;10591;52.532;13.348;2023-02-05T14:52:44;1.27;63.56
20862;DHT22;10591;52.532;13.348;2023-02-05T14:57:56;1.30;64.00
20862;DHT22;10591;52.532;13.348;2023-02-05T15:00:36;1.28;64.43
20862;DHT22;10591;52.532;13.348;2023-02-05T15:03:19;1.12;64.86
20862;DHT22;10591;52.532;13.348;2023-02-05T15:05:52;1.09;65.52
20862;DHT22;10591;52.532;13.348;2023-02-05T15:08:38;0.99;65.88
20862;DHT22;10591;52.532;13.348;2023-02-05T15:19:51;1.00;66.30
20862;DHT22;10591;52.532;13.348;2023-02-05T15:22:34;0.94;65.89
20862;DHT22;10591;52.532;13.348;2023-02-05T15:28:07;0.80;66.71
20862;DHT22;10591;52.532;13.348;2023-02-05T15:30:51;0.82;66.71
20862;DHT22;10591;52.532;13.348;2023-02-05T15:33:24;0.77;67.10
20862;DHT22;10591;52.532;13.348;2023-02-05T15:35:52;0.74;67.17
20862;DHT22;10591;52.532;13.348;2023-02-05T15:38:34;0.74;67.22
20862;DHT22;10591;52.532;13.348;2023-02-05T15:41:06;0.70;67.48
20862;DHT22;10591;52.532;13.348;2023-02-05T15:43:38;0.62;67.28
20862;DHT22;10591;52.532;13.348;2023-02-05T15:46:10;0.64;66.63
20862;DHT22;10591;52.532;13.348;2023-02-05T15:48:42;0.52;66.87
20862;DHT22;10591;52.532;13.348;2023-02-05T15:51:28;0.52;67.05
20862;DHT22;10591;52.532;13.348;2023-02-05T15:54:01;0.52;66.81
20862;DHT22;10591;52.532;13.348;2023-02-05T15:56:37;0.46;66.91
20862;DHT22;10591;52.532;13.348;2023-02-05T15:59:14;0.42;66.95
20862;DHT22;10591;52.532;13.348;2023-02-05T16:02:37;0.50;67.23
20862;DHT22;10591;52.532;13.348;2023-02-05T16:04:30;0.30;67.84
20862;DHT22;10591;52.532;13.348;2023-02-05T16:07:02;0.32;67.85
20862;DHT22;10591;52.532;13.348;2023-02-05T16:09:34;0.29;68.10
20862;DHT22;10591;52.532;13.348;2023-02-05T16:12:10;0.25;67.86
20862;DHT22;10591;52.532;13.348;2023-02-05T16:14:41;0.35;67.51
20862;DHT22;10591;52.532;13.348;2023-02-05T16:17:18;0.33;67.25
20862;DHT22;10591;52.532;13.348;2023-02-05T16:19:53;0.42;67.03
20862;DHT22;10591;52.532;13.348;2023-02-05T16:25:02;0.34;67.44
20862;DHT22;10591;52.532;13.348;2023-02-05T16:27:43;0.28;67.56
20862;DHT22;10591;52.532;13.348;2023-02-05T16:30:26;0.28;67.94
20862;DHT22;10591;52.532;13.348;2023-02-05T16:32:52;0.31;67.72
20862;DHT22;10591;52.532;13.348;2023-02-05T16:35:27;0.22;68.38
20862;DHT22;10591;52.532;13.348;2023-02-05T16:37:58;0.24;68.01
20862;DHT22;10591;52.532;13.348;2023-02-05T16:40:37;0.17;68.47
20862;DHT22;10591;52.532;13.348;2023-02-05T16:48:38;0.13;68.64
20862;DHT22;10591;52.532;13.348;2023-02-05T16:51:32;0.07;68.89
20862;DHT22;10591;52.532;13.348;2023-02-05T16:59:38;-0.08;70.04
20862;DHT22;10591;52.532;13.348;2023-02-05T17:02:14;-0.06;70.02
20862;DHT22;10591;52.532;13.348;2023-02-05T17:04:42;-0.02;70.10
20862;DHT22;10591;52.532;13.348;2023-02-05T17:07:16;0.01;70.51
20862;DHT22;10591;52.532;13.348;2023-02-05T17:09:48;0.00;70.58
20862;DHT22;10591;52.532;13.348;2023-02-05T17:17:49;-0.12;71.42
20862;DHT22;10591;52.532;13.348;2023-02-05T17:20:26;-0.09;71.38
20862;DHT22;10591;52.532;13.348;2023-02-05T17:25:51;-0.14;71.85
20862;DHT22;10591;52.532;13.348;2023-02-05T17:28:26;-0.18;72.04
20862;DHT22;10591;52.532;13.348;2023-02-05T17:31:04;-0.22;72.30
20862;DHT22;10591;52.532;13.348;2023-02-05T17:33:37;-0.34;72.68
20862;DHT22;10591;52.532;13.348;2023-02-05T17:36:14;-0.26;72.42
20862;DHT22;10591;52.532;13.348;2023-02-05T17:38:44;-0.47;72.86
20862;DHT22;10591;52.532;13.348;2023-02-05T17:41:23;-0.64;73.71
20862;DHT22;10591;52.532;13.348;2023-02-05T17:44:11;-0.72;74.33
20862;DHT22;10591;52.532;13.348;2023-02-05T17:46:45;-0.56;73.87
20862;DHT22;10591;52.532;13.348;2023-02-05T17:49:17;-0.35;72.72
20862;DHT22;10591;52.532;13.348;2023-02-05T17:51:47;-0.38;72.47
20862;DHT22;10591;52.532;13.348;2023-02-05T17:54:20;-0.40;72.42
20862;DHT22;10591;52.532;13.348;2023-02-05T17:56:54;-0.47;73.15
20862;DHT22;10591;52.532;13.348;2023-02-05T17:59:25;-0.48;73.10
20862;DHT22;10591;52.532;13.348;2023-02-05T18:02:00;-0.68;73.85
20862;DHT22;10591;52.532;13.348;2023-02-05T18:04:32;-0.72;74.45
20862;DHT22;10591;52.532;13.348;2023-02-05T18:07:03;-0.79;74.70
20862;DHT22;10591;52.532;13.348;2023-02-05T18:09:34;-0.74;74.52
20862;DHT22;10591;52.532;13.348;2023-02-05T18:12:06;-0.58;74.06
20862;DHT22;10591;52.532;13.348;2023-02-05T18:14:36;-0.79;74.97
20862;DHT22;10591;52.532;13.348;2023-02-05T18:17:07;-0.80;75.07
20862;DHT22;10591;52.532;13.348;2023-02-05T18:19:38;-0.94;75.21
20862;DHT22;10591;52.532;13.348;2023-02-05T18:22:09;-1.00;75.58
20862;DHT22;10591;52.532;13.348;2023-02-05T18:24:41;-1.04;75.86
20862;DHT22;10591;52.532;13.348;2023-02-05T18:27:13;-1.09;75.95
20862;DHT22;10591;52.532;13.348;2023-02-05T18:29:45;-1.16;76.17
20862;DHT22;10591;52.532;13.348;2023-02-05T18:32:17;-1.13;76.47
20862;DHT22;10591;52.532;13.348;2023-02-05T18:34:48;-1.14;76.82
20862;DHT22;10591;52.532;13.348;2023-02-05T18:37:23;-1.20;76.74
20862;DHT22;10591;52.532;13.348;2023-02-05T18:39:57;-1.06;76.01
20862;DHT22;10591;52.532;13.348;2023-02-05T18:42:28;-1.02;75.65
20862;DHT22;10591;52.532;13.348;2023-02-05T18:45:00;-1.08;75.90
20862;DHT22;10591;52.532;13.348;2023-02-05T18:47:33;-1.20;76.43
20862;DHT22;10591;52.532;13.348;2023-02-05T18:50:05;-1.26;76.60